sensor_id;sensor_type;location;lat;lon;timestamp;P1;durP1;ratioP1;P2;durP2;ratioP2
77563;SDS011;66703;48.076;9.220;2023-08-08T00:01:23;3.83;;;3.53;;
77563;SDS011;66703;48.076;9.220;2023-08-08T00:03:49;5.18;;;4.75;;
77563;SDS011;66703;48.076;9.220;2023-08-08T00:06:14;4.72;;;4.38;;
77563;SDS011;66703;48.076;9.220;2023-08-08T00:08:39;4.18;;;3.88;;
77563;SDS011;66703;48.076;9.220;2023-08-08T00:11:05;4.80;;;4.35;;
77563;SDS011;66703;48.076;9.220;2023-08-08T00:13:30;6.93;;;6.35;;
77563;SDS011;66703;48.076;9.220;2023-08-08T00:15:56;4.25;;;3.95;;
77563;SDS011;66703;48.076;9.220;2023-08-08T00:18:21;3.92;;;3.63;;
77563;SDS011;66703;48.076;9.220;2023-08-08T00:20:47;4.32;;;4.03;;
77563;SDS011;66703;48.076;9.220;2023-08-08T00:23:12;4.90;;;4.45;;
77563;SDS011;66703;48.076;9.220;2023-08-08T00:25:37;4.80;;;4.38;;
77563;SDS011;66703;48.076;9.220;2023-08-08T00:28:03;4.78;;;4.38;;
77563;SDS011;66703;48.076;9.220;2023-08-08T00:30:28;4.45;;;4.15;;
77563;SDS011;66703;48.076;9.220;2023-08-08T00:32:54;4.70;;;4.30;;
77563;SDS011;66703;48.076;9.220;2023-08-08T00:35:19;4.38;;;3.08;;
77563;SDS011;66703;48.076;9.220;2023-08-08T00:37:45;5.00;;;4.60;;
77563;SDS011;66703;48.076;9.220;2023-08-08T00:40:10;4.43;;;4.13;;
77563;SDS011;66703;48.076;9.220;2023-08-08T00:42:35;4.13;;;3.72;;
77563;SDS011;66703;48.076;9.220;2023-08-08T00:45:01;4.18;;;3.78;;
77563;SDS011;66703;48.076;9.220;2023-08-08T00:47:29;4.13;;;3.83;;
77563;SDS011;66703;48.076;9.220;2023-08-08T00:49:56;4.00;;;3.70;;
77563;SDS011;66703;48.076;9.220;2023-08-08T00:52:25;4.78;;;4.38;;
77563;SDS011;66703;48.076;9.220;2023-08-08T00:54:50;3.67;;;3.38;;
77563;SDS011;66703;48.076;9.220;2023-08-08T00:57:17;4.53;;;3.47;;
77563;SDS011;66703;48.076;9.220;2023-08-08T00:59:42;4.03;;;3.72;;
77563;SDS011;66703;48.076;9.220;2023-08-08T01:02:08;3.63;;;3.33;;
77563;SDS011;66703;48.076;9.220;2023-08-08T01:04:33;4.18;;;3.88;;
77563;SDS011;66703;48.076;9.220;2023-08-08T01:09:53;4.53;;;4.13;;
77563;SDS011;66703;48.076;9.220;2023-08-08T01:12:21;4.22;;;3.83;;
77563;SDS011;66703;48.076;9.220;2023-08-08T01:14:48;4.60;;;4.20;;
77563;SDS011;66703;48.076;9.220;2023-08-08T01:17:15;3.88;;;3.63;;
77563;SDS011;66703;48.076;9.220;2023-08-08T01:19:40;5.07;;;4.68;;
77563;SDS011;66703;48.076;9.220;2023-08-08T01:22:07;4.90;;;4.57;;
77563;SDS011;66703;48.076;9.220;2023-08-08T01:24:34;3.60;;;3.30;;
77563;SDS011;66703;48.076;9.220;2023-08-08T01:27:02;8.27;;;7.85;;
77563;SDS011;66703;48.076;9.220;2023-08-08T01:29:28;5.28;;;4.88;;
77563;SDS011;66703;48.076;9.220;2023-08-08T01:31:54;6.47;;;6.13;;
77563;SDS011;66703;48.076;9.220;2023-08-08T01:34:20;5.93;;;5.53;;
77563;SDS011;66703;48.076;9.220;2023-08-08T01:36:47;4.05;;;3.65;;
77563;SDS011;66703;48.076;9.220;2023-08-08T01:39:17;4.95;;;4.55;;
77563;SDS011;66703;48.076;9.220;2023-08-08T01:44:12;5.60;;;5.20;;
77563;SDS011;66703;48.076;9.220;2023-08-08T01:46:37;5.53;;;4.82;;
77563;SDS011;66703;48.076;9.220;2023-08-08T01:49:03;4.80;;;4.50;;
77563;SDS011;66703;48.076;9.220;2023-08-08T01:51:29;3.95;;;3.75;;
77563;SDS011;66703;48.076;9.220;2023-08-08T01:53:54;4.88;;;4.53;;
77563;SDS011;66703;48.076;9.220;2023-08-08T01:56:20;5.05;;;4.75;;
77563;SDS011;66703;48.076;9.220;2023-08-08T01:58:45;5.65;;;5.18;;
77563;SDS011;66703;48.076;9.220;2023-08-08T02:01:10;4.93;;;4.53;;
77563;SDS011;66703;48.076;9.220;2023-08-08T02:03:36;4.45;;;4.05;;
77563;SDS011;66703;48.076;9.220;2023-08-08T02:06:01;4.32;;;4.03;;
77563;SDS011;66703;48.076;9.220;2023-08-08T02:08:26;4.40;;;4.03;;
77563;SDS011;66703;48.076;9.220;2023-08-08T02:10:52;4.55;;;4.25;;
77563;SDS011;66703;48.076;9.220;2023-08-08T02:13:17;6.10;;;5.70;;
77563;SDS011;66703;48.076;9.220;2023-08-08T02:15:42;5.25;;;4.85;;
77563;SDS011;66703;48.076;9.220;2023-08-08T02:18:08;4.00;;;3.70;;
77563;SDS011;66703;48.076;9.220;2023-08-08T02:20:36;6.43;;;6.03;;
77563;SDS011;66703;48.076;9.220;2023-08-08T02:23:01;6.38;;;5.80;;
77563;SDS011;66703;48.076;9.220;2023-08-08T02:25:26;5.68;;;5.18;;
77563;SDS011;66703;48.076;9.220;2023-08-08T02:27:52;5.15;;;4.75;;
77563;SDS011;66703;48.076;9.220;2023-08-08T02:30:17;6.22;;;5.03;;
77563;SDS011;66703;48.076;9.220;2023-08-08T02:32:43;4.80;;;4.50;;
77563;SDS011;66703;48.076;9.220;2023-08-08T02:35:08;4.97;;;4.63;;
77563;SDS011;66703;48.076;9.220;2023-08-08T02:37:34;5.47;;;4.97;;
77563;SDS011;66703;48.076;9.220;2023-08-08T02:39:59;4.50;;;4.18;;
77563;SDS011;66703;48.076;9.220;2023-08-08T02:42:24;8.80;;;8.32;;
77563;SDS011;66703;48.076;9.220;2023-08-08T02:44:50;4.75;;;4.35;;
77563;SDS011;66703;48.076;9.220;2023-08-08T02:47:16;5.50;;;5.13;;
77563;SDS011;66703;48.076;9.220;2023-08-08T02:49:41;4.93;;;4.50;;
77563;SDS011;66703;48.076;9.220;2023-08-08T02:52:06;4.32;;;3.92;;
77563;SDS011;66703;48.076;9.220;2023-08-08T02:54:32;5.65;;;5.15;;
77563;SDS011;66703;48.076;9.220;2023-08-08T02:56:57;4.22;;;3.85;;
77563;SDS011;66703;48.076;9.220;2023-08-08T02:59:23;4.55;;;4.25;;
77563;SDS011;66703;48.076;9.220;2023-08-08T03:01:48;4.88;;;4.47;;
77563;SDS011;66703;48.076;9.220;2023-08-08T03:04:14;6.88;;;6.38;;
77563;SDS011;66703;48.076;9.220;2023-08-08T03:06:39;4.80;;;4.40;;
77563;SDS011;66703;48.076;9.220;2023-08-08T03:09:05;4.32;;;4.03;;
77563;SDS011;66703;48.076;9.220;2023-08-08T03:11:30;5.13;;;4.70;;
77563;SDS011;66703;48.076;9.220;2023-08-08T03:13:56;6.10;;;5.70;;
77563;SDS011;66703;48.076;9.220;2023-08-08T03:16:21;8.57;;;4.57;;
77563;SDS011;66703;48.076;9.220;2023-08-08T03:18:46;5.43;;;5.03;;
77563;SDS011;66703;48.076;9.220;2023-08-08T03:21:12;5.55;;;5.15;;
77563;SDS011;66703;48.076;9.220;2023-08-08T03:23:37;4.03;;;3.72;;
77563;SDS011;66703;48.076;9.220;2023-08-08T03:26:03;9.25;;;8.65;;
77563;SDS011;66703;48.076;9.220;2023-08-08T03:28:28;6.22;;;5.63;;
77563;SDS011;66703;48.076;9.220;2023-08-08T03:30:54;4.65;;;4.13;;
77563;SDS011;66703;48.076;9.220;2023-08-08T03:33:19;5.22;;;4.72;;
77563;SDS011;66703;48.076;9.220;2023-08-08T03:35:44;4.65;;;4.35;;
77563;SDS011;66703;48.076;9.220;2023-08-08T03:38:10;5.90;;;5.40;;
77563;SDS011;66703;48.076;9.220;2023-08-08T03:40:35;4.57;;;4.20;;
77563;SDS011;66703;48.076;9.220;2023-08-08T03:43:00;4.07;;;3.75;;
77563;SDS011;66703;48.076;9.220;2023-08-08T03:45:26;4.90;;;4.47;;
77563;SDS011;66703;48.076;9.220;2023-08-08T03:47:52;5.55;;;5.03;;
77563;SDS011;66703;48.076;9.220;2023-08-08T03:50:17;4.75;;;4.35;;
77563;SDS011;66703;48.076;9.220;2023-08-08T03:52:43;4.40;;;4.10;;
77563;SDS011;66703;48.076;9.220;2023-08-08T03:55:08;4.75;;;4.35;;
77563;SDS011;66703;48.076;9.220;2023-08-08T03:57:34;6.00;;;5.60;;
77563;SDS011;66703;48.076;9.220;2023-08-08T03:59:59;4.18;;;3.88;;
77563;SDS011;66703;48.076;9.220;2023-08-08T04:02:25;5.13;;;4.00;;
77563;SDS011;66703;48.076;9.220;2023-08-08T04:04:50;4.78;;;4.47;;
77563;SDS011;66703;48.076;9.220;2023-08-08T04:07:16;4.68;;;4.25;;
77563;SDS011;66703;48.076;9.220;2023-08-08T04:09:41;4.53;;;4.22;;
77563;SDS011;66703;48.076;9.220;2023-08-08T04:12:07;4.35;;;3.97;;
77563;SDS011;66703;48.076;9.220;2023-08-08T04:14:33;4.93;;;4.50;;
77563;SDS011;66703;48.076;9.220;2023-08-08T04:16:58;4.72;;;4.38;;
77563;SDS011;66703;48.076;9.220;2023-08-08T04:19:24;5.68;;;5.35;;
77563;SDS011;66703;48.076;9.220;2023-08-08T04:21:49;4.07;;;3.78;;
77563;SDS011;66703;48.076;9.220;2023-08-08T04:24:15;5.82;;;5.43;;
77563;SDS011;66703;48.076;9.220;2023-08-08T04:26:40;5.68;;;5.28;;
77563;SDS011;66703;48.076;9.220;2023-08-08T04:29:06;5.00;;;4.60;;
77563;SDS011;66703;48.076;9.220;2023-08-08T04:31:31;5.32;;;5.00;;
77563;SDS011;66703;48.076;9.220;2023-08-08T04:33:56;4.18;;;3.70;;
77563;SDS011;66703;48.076;9.220;2023-08-08T04:36:25;4.93;;;4.53;;
77563;SDS011;66703;48.076;9.220;2023-08-08T04:38:51;3.90;;;3.50;;
77563;SDS011;66703;48.076;9.220;2023-08-08T04:41:16;4.72;;;3.97;;
77563;SDS011;66703;48.076;9.220;2023-08-08T04:43:42;4.50;;;4.15;;
77563;SDS011;66703;48.076;9.220;2023-08-08T04:46:07;4.60;;;4.20;;
77563;SDS011;66703;48.076;9.220;2023-08-08T04:48:33;4.45;;;4.15;;
77563;SDS011;66703;48.076;9.220;2023-08-08T04:50:58;7.05;;;3.83;;
77563;SDS011;66703;48.076;9.220;2023-08-08T04:53:23;3.42;;;3.13;;
77563;SDS011;66703;48.076;9.220;2023-08-08T04:55:49;4.28;;;3.97;;
77563;SDS011;66703;48.076;9.220;2023-08-08T04:58:14;5.65;;;5.25;;
77563;SDS011;66703;48.076;9.220;2023-08-08T05:00:40;7.03;;;6.63;;
77563;SDS011;66703;48.076;9.220;2023-08-08T05:03:05;4.07;;;3.78;;
77563;SDS011;66703;48.076;9.220;2023-08-08T05:05:30;5.38;;;5.07;;
77563;SDS011;66703;48.076;9.220;2023-08-08T05:07:56;4.68;;;4.28;;
77563;SDS011;66703;48.076;9.220;2023-08-08T05:10:21;3.75;;;3.45;;
77563;SDS011;66703;48.076;9.220;2023-08-08T05:12:48;3.78;;;3.55;;
77563;SDS011;66703;48.076;9.220;2023-08-08T05:15:13;4.75;;;4.35;;
77563;SDS011;66703;48.076;9.220;2023-08-08T05:17:38;4.65;;;4.28;;
77563;SDS011;66703;48.076;9.220;2023-08-08T05:20:04;4.63;;;4.30;;
77563;SDS011;66703;48.076;9.220;2023-08-08T05:22:30;4.55;;;4.20;;
77563;SDS011;66703;48.076;9.220;2023-08-08T05:24:55;4.03;;;3.72;;
77563;SDS011;66703;48.076;9.220;2023-08-08T05:27:20;5.15;;;4.75;;
77563;SDS011;66703;48.076;9.220;2023-08-08T05:29:46;5.35;;;4.85;;
77563;SDS011;66703;48.076;9.220;2023-08-08T05:32:11;5.50;;;5.10;;
77563;SDS011;66703;48.076;9.220;2023-08-08T05:34:36;4.65;;;4.03;;
77563;SDS011;66703;48.076;9.220;2023-08-08T05:37:02;6.72;;;3.85;;
77563;SDS011;66703;48.076;9.220;2023-08-08T05:39:31;4.93;;;4.38;;
77563;SDS011;66703;48.076;9.220;2023-08-08T05:41:56;4.15;;;3.75;;
77563;SDS011;66703;48.076;9.220;2023-08-08T05:44:22;7.03;;;5.35;;
77563;SDS011;66703;48.076;9.220;2023-08-08T05:46:47;5.68;;;5.18;;
77563;SDS011;66703;48.076;9.220;2023-08-08T05:49:13;4.90;;;4.40;;
77563;SDS011;66703;48.076;9.220;2023-08-08T05:51:39;4.65;;;4.25;;
77563;SDS011;66703;48.076;9.220;2023-08-08T05:54:05;4.95;;;4.55;;
77563;SDS011;66703;48.076;9.220;2023-08-08T05:56:34;4.18;;;3.88;;
77563;SDS011;66703;48.076;9.220;2023-08-08T05:59:01;6.05;;;5.72;;
77563;SDS011;66703;48.076;9.220;2023-08-08T06:01:26;5.93;;;4.22;;
77563;SDS011;66703;48.076;9.220;2023-08-08T06:03:52;4.50;;;4.13;;
77563;SDS011;66703;48.076;9.220;2023-08-08T06:06:18;3.92;;;3.63;;
77563;SDS011;66703;48.076;9.220;2023-08-08T06:08:43;4.20;;;3.78;;
77563;SDS011;66703;48.076;9.220;2023-08-08T06:11:09;3.80;;;3.35;;
77563;SDS011;66703;48.076;9.220;2023-08-08T06:13:34;4.57;;;4.18;;
77563;SDS011;66703;48.076;9.220;2023-08-08T06:16:00;5.13;;;3.83;;
77563;SDS011;66703;48.076;9.220;2023-08-08T06:18:26;4.78;;;4.47;;
77563;SDS011;66703;48.076;9.220;2023-08-08T06:20:51;4.35;;;4.05;;
77563;SDS011;66703;48.076;9.220;2023-08-08T06:23:17;4.55;;;4.25;;
77563;SDS011;66703;48.076;9.220;2023-08-08T06:25:43;3.90;;;3.58;;
77563;SDS011;66703;48.076;9.220;2023-08-08T06:28:09;4.28;;;3.95;;
77563;SDS011;66703;48.076;9.220;2023-08-08T06:30:34;4.03;;;3.72;;
77563;SDS011;66703;48.076;9.220;2023-08-08T06:33:00;3.33;;;3.03;;
77563;SDS011;66703;48.076;9.220;2023-08-08T06:35:25;5.50;;;5.15;;
77563;SDS011;66703;48.076;9.220;2023-08-08T06:37:51;3.42;;;3.13;;
77563;SDS011;66703;48.076;9.220;2023-08-08T06:40:16;4.10;;;3.58;;
77563;SDS011;66703;48.076;9.220;2023-08-08T06:42:42;3.08;;;2.88;;
77563;SDS011;66703;48.076;9.220;2023-08-08T06:45:07;4.15;;;3.75;;
77563;SDS011;66703;48.076;9.220;2023-08-08T06:47:34;3.20;;;2.90;;
77563;SDS011;66703;48.076;9.220;2023-08-08T06:50:00;3.08;;;2.83;;
77563;SDS011;66703;48.076;9.220;2023-08-08T06:52:25;2.88;;;2.67;;
77563;SDS011;66703;48.076;9.220;2023-08-08T06:54:51;3.28;;;3.08;;
77563;SDS011;66703;48.076;9.220;2023-08-08T06:57:16;5.03;;;4.70;;
77563;SDS011;66703;48.076;9.220;2023-08-08T06:59:41;2.88;;;2.67;;
77563;SDS011;66703;48.076;9.220;2023-08-08T07:02:07;3.53;;;2.67;;
77563;SDS011;66703;48.076;9.220;2023-08-08T07:04:32;2.97;;;2.70;;
77563;SDS011;66703;48.076;9.220;2023-08-08T07:06:58;3.35;;;2.70;;
77563;SDS011;66703;48.076;9.220;2023-08-08T07:09:23;3.38;;;3.08;;
77563;SDS011;66703;48.076;9.220;2023-08-08T07:11:49;3.13;;;2.92;;
77563;SDS011;66703;48.076;9.220;2023-08-08T07:14:14;3.53;;;3.22;;
77563;SDS011;66703;48.076;9.220;2023-08-08T07:16:40;3.35;;;3.15;;
77563;SDS011;66703;48.076;9.220;2023-08-08T07:19:05;3.17;;;2.88;;
77563;SDS011;66703;48.076;9.220;2023-08-08T07:21:31;5.50;;;5.05;;
77563;SDS011;66703;48.076;9.220;2023-08-08T07:23:56;3.33;;;3.13;;
77563;SDS011;66703;48.076;9.220;2023-08-08T07:26:22;2.90;;;2.10;;
77563;SDS011;66703;48.076;9.220;2023-08-08T07:28:48;2.65;;;2.42;;
77563;SDS011;66703;48.076;9.220;2023-08-08T07:31:13;2.72;;;2.28;;
77563;SDS011;66703;48.076;9.220;2023-08-08T07:33:45;2.60;;;2.40;;
77563;SDS011;66703;48.076;9.220;2023-08-08T07:36:13;3.95;;;2.33;;
77563;SDS011;66703;48.076;9.220;2023-08-08T07:38:50;2.72;;;2.35;;
77563;SDS011;66703;48.076;9.220;2023-08-08T07:44:44;4.40;;;2.53;;
77563;SDS011;66703;48.076;9.220;2023-08-08T07:47:11;4.03;;;3.60;;
77563;SDS011;66703;48.076;9.220;2023-08-08T07:49:51;2.88;;;2.58;;
77563;SDS011;66703;48.076;9.220;2023-08-08T07:52:50;4.70;;;2.60;;
77563;SDS011;66703;48.076;9.220;2023-08-08T07:55:24;3.00;;;2.70;;
77563;SDS011;66703;48.076;9.220;2023-08-08T07:57:49;2.28;;;2.00;;
77563;SDS011;66703;48.076;9.220;2023-08-08T08:00:15;2.83;;;2.30;;
77563;SDS011;66703;48.076;9.220;2023-08-08T08:02:43;3.05;;;2.65;;
77563;SDS011;66703;48.076;9.220;2023-08-08T08:05:10;4.20;;;3.67;;
77563;SDS011;66703;48.076;9.220;2023-08-08T08:07:35;3.42;;;2.22;;
77563;SDS011;66703;48.076;9.220;2023-08-08T08:10:02;2.65;;;2.17;;
77563;SDS011;66703;48.076;9.220;2023-08-08T08:12:29;2.40;;;2.20;;
77563;SDS011;66703;48.076;9.220;2023-08-08T08:14:55;2.33;;;1.73;;
77563;SDS011;66703;48.076;9.220;2023-08-08T08:17:21;2.53;;;2.33;;
77563;SDS011;66703;48.076;9.220;2023-08-08T08:19:46;3.13;;;2.83;;
77563;SDS011;66703;48.076;9.220;2023-08-08T08:22:12;2.75;;;2.55;;
77563;SDS011;66703;48.076;9.220;2023-08-08T08:24:37;3.08;;;2.30;;
77563;SDS011;66703;48.076;9.220;2023-08-08T08:27:03;3.20;;;2.90;;
77563;SDS011;66703;48.076;9.220;2023-08-08T08:29:31;2.83;;;2.55;;
77563;SDS011;66703;48.076;9.220;2023-08-08T08:31:58;2.72;;;1.98;;
77563;SDS011;66703;48.076;9.220;2023-08-08T08:34:26;4.40;;;3.08;;
77563;SDS011;66703;48.076;9.220;2023-08-08T08:36:58;2.50;;;2.30;;
77563;SDS011;66703;48.076;9.220;2023-08-08T08:39:23;2.38;;;2.10;;
77563;SDS011;66703;48.076;9.220;2023-08-08T08:41:49;2.60;;;2.38;;
77563;SDS011;66703;48.076;9.220;2023-08-08T08:44:19;2.35;;;2.15;;
77563;SDS011;66703;48.076;9.220;2023-08-08T08:46:46;2.55;;;2.25;;
77563;SDS011;66703;48.076;9.220;2023-08-08T08:49:13;2.47;;;2.28;;
77563;SDS011;66703;48.076;9.220;2023-08-08T08:51:39;4.30;;;2.83;;
77563;SDS011;66703;48.076;9.220;2023-08-08T08:54:08;2.53;;;2.10;;
77563;SDS011;66703;48.076;9.220;2023-08-08T08:56:34;2.40;;;2.20;;
77563;SDS011;66703;48.076;9.220;2023-08-08T08:59:00;2.72;;;2.30;;
77563;SDS011;66703;48.076;9.220;2023-08-08T09:01:25;3.15;;;2.17;;
77563;SDS011;66703;48.076;9.220;2023-08-08T09:03:52;2.40;;;2.20;;
77563;SDS011;66703;48.076;9.220;2023-08-08T09:06:18;3.40;;;2.33;;
77563;SDS011;66703;48.076;9.220;2023-08-08T09:08:45;2.25;;;2.05;;
77563;SDS011;66703;48.076;9.220;2023-08-08T09:11:12;2.60;;;2.40;;
77563;SDS011;66703;48.076;9.220;2023-08-08T09:13:38;2.72;;;1.90;;
77563;SDS011;66703;48.076;9.220;2023-08-08T09:16:08;3.08;;;2.83;;
77563;SDS011;66703;48.076;9.220;2023-08-08T09:18:34;2.35;;;2.05;;
77563;SDS011;66703;48.076;9.220;2023-08-08T09:21:03;2.47;;;1.83;;
77563;SDS011;66703;48.076;9.220;2023-08-08T09:23:29;2.85;;;2.55;;
77563;SDS011;66703;48.076;9.220;2023-08-08T09:25:54;2.55;;;1.98;;
77563;SDS011;66703;48.076;9.220;2023-08-08T09:28:20;3.38;;;2.13;;
77563;SDS011;66703;48.076;9.220;2023-08-08T09:30:45;3.78;;;1.92;;
77563;SDS011;66703;48.076;9.220;2023-08-08T09:33:11;2.70;;;2.40;;
77563;SDS011;66703;48.076;9.220;2023-08-08T09:35:39;2.33;;;2.10;;
77563;SDS011;66703;48.076;9.220;2023-08-08T09:38:05;2.33;;;2.13;;
77563;SDS011;66703;48.076;9.220;2023-08-08T09:40:30;3.95;;;2.30;;
77563;SDS011;66703;48.076;9.220;2023-08-08T09:42:59;3.15;;;2.53;;
77563;SDS011;66703;48.076;9.220;2023-08-08T09:45:35;2.65;;;2.00;;
77563;SDS011;66703;48.076;9.220;2023-08-08T09:48:04;2.60;;;2.22;;
77563;SDS011;66703;48.076;9.220;2023-08-08T09:50:30;2.60;;;2.30;;
77563;SDS011;66703;48.076;9.220;2023-08-08T09:53:03;2.95;;;2.28;;
77563;SDS011;66703;48.076;9.220;2023-08-08T09:55:39;3.25;;;2.17;;
77563;SDS011;66703;48.076;9.220;2023-08-08T09:58:04;2.55;;;2.20;;
77563;SDS011;66703;48.076;9.220;2023-08-08T10:00:30;3.55;;;1.98;;
77563;SDS011;66703;48.076;9.220;2023-08-08T10:02:59;3.78;;;2.22;;
77563;SDS011;66703;48.076;9.220;2023-08-08T10:05:25;2.58;;;2.30;;
77563;SDS011;66703;48.076;9.220;2023-08-08T10:10:27;3.83;;;2.35;;
77563;SDS011;66703;48.076;9.220;2023-08-08T10:12:53;2.15;;;1.80;;
77563;SDS011;66703;48.076;9.220;2023-08-08T10:15:18;2.20;;;1.88;;
77563;SDS011;66703;48.076;9.220;2023-08-08T10:17:43;3.40;;;2.50;;
77563;SDS011;66703;48.076;9.220;2023-08-08T10:20:10;2.35;;;1.75;;
77563;SDS011;66703;48.076;9.220;2023-08-08T10:22:42;2.75;;;2.40;;
77563;SDS011;66703;48.076;9.220;2023-08-08T10:25:09;1.95;;;1.67;;
77563;SDS011;66703;48.076;9.220;2023-08-08T10:27:42;3.83;;;2.65;;
77563;SDS011;66703;48.076;9.220;2023-08-08T10:30:08;2.20;;;2.00;;
77563;SDS011;66703;48.076;9.220;2023-08-08T10:32:39;2.85;;;1.80;;
77563;SDS011;66703;48.076;9.220;2023-08-08T10:35:06;3.40;;;2.20;;
77563;SDS011;66703;48.076;9.220;2023-08-08T10:37:35;2.03;;;1.80;;
77563;SDS011;66703;48.076;9.220;2023-08-08T10:40:02;2.85;;;2.10;;
77563;SDS011;66703;48.076;9.220;2023-08-08T10:42:32;3.38;;;2.10;;
77563;SDS011;66703;48.076;9.220;2023-08-08T10:45:08;2.58;;;2.10;;
77563;SDS011;66703;48.076;9.220;2023-08-08T10:47:35;2.05;;;1.85;;
77563;SDS011;66703;48.076;9.220;2023-08-08T10:55:24;2.10;;;1.85;;
77563;SDS011;66703;48.076;9.220;2023-08-08T10:58:07;2.28;;;2.08;;
77563;SDS011;66703;48.076;9.220;2023-08-08T11:00:35;1.98;;;1.77;;
77563;SDS011;66703;48.076;9.220;2023-08-08T11:03:04;3.35;;;1.90;;
77563;SDS011;66703;48.076;9.220;2023-08-08T11:05:30;2.78;;;1.95;;
77563;SDS011;66703;48.076;9.220;2023-08-08T11:08:06;2.90;;;2.20;;
77563;SDS011;66703;48.076;9.220;2023-08-08T11:10:41;3.05;;;2.08;;
77563;SDS011;66703;48.076;9.220;2023-08-08T11:13:08;2.35;;;2.15;;
77563;SDS011;66703;48.076;9.220;2023-08-08T11:15:34;3.85;;;2.08;;
77563;SDS011;66703;48.076;9.220;2023-08-08T11:18:00;3.30;;;2.00;;
77563;SDS011;66703;48.076;9.220;2023-08-08T11:20:36;3.38;;;1.83;;
77563;SDS011;66703;48.076;9.220;2023-08-08T11:23:02;3.10;;;2.00;;
77563;SDS011;66703;48.076;9.220;2023-08-08T11:25:30;3.53;;;2.17;;
77563;SDS011;66703;48.076;9.220;2023-08-08T11:27:57;2.88;;;2.08;;
77563;SDS011;66703;48.076;9.220;2023-08-08T11:30:23;2.40;;;1.73;;
77563;SDS011;66703;48.076;9.220;2023-08-08T11:33:01;3.05;;;1.98;;
77563;SDS011;66703;48.076;9.220;2023-08-08T11:35:54;2.90;;;2.13;;
77563;SDS011;66703;48.076;9.220;2023-08-08T11:45:28;3.38;;;2.20;;
77563;SDS011;66703;48.076;9.220;2023-08-08T11:48:27;2.20;;;2.00;;
77563;SDS011;66703;48.076;9.220;2023-08-08T11:50:53;2.00;;;1.80;;
77563;SDS011;66703;48.076;9.220;2023-08-08T11:57:04;2.22;;;2.03;;
77563;SDS011;66703;48.076;9.220;2023-08-08T11:59:48;3.03;;;2.30;;
77563;SDS011;66703;48.076;9.220;2023-08-08T12:02:14;3.78;;;2.17;;
77563;SDS011;66703;48.076;9.220;2023-08-08T12:04:43;2.38;;;1.90;;
77563;SDS011;66703;48.076;9.220;2023-08-08T12:07:22;2.20;;;2.00;;
77563;SDS011;66703;48.076;9.220;2023-08-08T12:09:51;2.70;;;2.05;;
77563;SDS011;66703;48.076;9.220;2023-08-08T12:12:19;2.20;;;1.75;;
77563;SDS011;66703;48.076;9.220;2023-08-08T12:14:44;2.28;;;2.05;;
77563;SDS011;66703;48.076;9.220;2023-08-08T12:17:10;3.10;;;1.70;;
77563;SDS011;66703;48.076;9.220;2023-08-08T12:19:35;2.33;;;1.95;;
77563;SDS011;66703;48.076;9.220;2023-08-08T12:22:03;2.05;;;1.70;;
77563;SDS011;66703;48.076;9.220;2023-08-08T12:24:34;2.30;;;1.50;;
77563;SDS011;66703;48.076;9.220;2023-08-08T12:27:00;2.10;;;1.70;;
77563;SDS011;66703;48.076;9.220;2023-08-08T12:29:25;2.85;;;1.73;;
77563;SDS011;66703;48.076;9.220;2023-08-08T12:31:51;2.75;;;2.10;;
77563;SDS011;66703;48.076;9.220;2023-08-08T12:35:16;1.92;;;1.83;;
77563;SDS011;66703;48.076;9.220;2023-08-08T12:37:48;3.30;;;2.28;;
77563;SDS011;66703;48.076;9.220;2023-08-08T12:41:15;2.00;;;1.77;;
77563;SDS011;66703;48.076;9.220;2023-08-08T12:58:10;2.33;;;1.75;;
77563;SDS011;66703;48.076;9.220;2023-08-08T13:05:10;1.88;;;1.60;;
77563;SDS011;66703;48.076;9.220;2023-08-08T13:07:48;2.50;;;1.52;;
77563;SDS011;66703;48.076;9.220;2023-08-08T13:10:13;1.90;;;1.80;;
77563;SDS011;66703;48.076;9.220;2023-08-08T13:12:48;2.13;;;1.92;;
77563;SDS011;66703;48.076;9.220;2023-08-08T13:15:14;2.97;;;2.00;;
77563;SDS011;66703;48.076;9.220;2023-08-08T13:17:39;3.30;;;2.30;;
77563;SDS011;66703;48.076;9.220;2023-08-08T13:20:37;2.60;;;1.80;;
77563;SDS011;66703;48.076;9.220;2023-08-08T13:23:54;3.75;;;1.98;;
77563;SDS011;66703;48.076;9.220;2023-08-08T13:30:11;2.95;;;2.00;;
77563;SDS011;66703;48.076;9.220;2023-08-08T13:32:37;2.80;;;2.00;;
77563;SDS011;66703;48.076;9.220;2023-08-08T13:35:03;2.33;;;2.00;;
77563;SDS011;66703;48.076;9.220;2023-08-08T13:37:29;2.20;;;1.70;;
77563;SDS011;66703;48.076;9.220;2023-08-08T13:39:55;2.13;;;1.75;;
77563;SDS011;66703;48.076;9.220;2023-08-08T13:42:20;2.53;;;1.98;;
77563;SDS011;66703;48.076;9.220;2023-08-08T13:44:46;2.00;;;1.80;;
77563;SDS011;66703;48.076;9.220;2023-08-08T13:47:17;1.98;;;1.75;;
77563;SDS011;66703;48.076;9.220;2023-08-08T13:49:42;2.28;;;1.80;;
77563;SDS011;66703;48.076;9.220;2023-08-08T13:52:08;2.20;;;1.85;;
77563;SDS011;66703;48.076;9.220;2023-08-08T13:54:34;2.53;;;1.92;;
77563;SDS011;66703;48.076;9.220;2023-08-08T13:57:00;3.38;;;2.55;;
77563;SDS011;66703;48.076;9.220;2023-08-08T13:59:25;2.47;;;1.70;;
77563;SDS011;66703;48.076;9.220;2023-08-08T14:01:52;2.97;;;1.90;;
77563;SDS011;66703;48.076;9.220;2023-08-08T14:04:17;1.70;;;1.60;;
77563;SDS011;66703;48.076;9.220;2023-08-08T14:06:42;3.30;;;2.55;;
77563;SDS011;66703;48.076;9.220;2023-08-08T14:09:08;12.65;;;10.57;;
77563;SDS011;66703;48.076;9.220;2023-08-08T14:11:33;3.05;;;2.40;;
77563;SDS011;66703;48.076;9.220;2023-08-08T14:14:00;2.95;;;1.92;;
77563;SDS011;66703;48.076;9.220;2023-08-08T14:16:28;3.00;;;2.17;;
77563;SDS011;66703;48.076;9.220;2023-08-08T14:18:58;6.35;;;4.78;;
77563;SDS011;66703;48.076;9.220;2023-08-08T14:21:25;3.75;;;2.60;;
77563;SDS011;66703;48.076;9.220;2023-08-08T14:23:53;5.70;;;3.92;;
77563;SDS011;66703;48.076;9.220;2023-08-08T14:26:19;2.90;;;2.20;;
77563;SDS011;66703;48.076;9.220;2023-08-08T14:28:44;3.10;;;2.05;;
77563;SDS011;66703;48.076;9.220;2023-08-08T14:34:08;2.33;;;2.10;;
77563;SDS011;66703;48.076;9.220;2023-08-08T14:36:39;2.33;;;1.75;;
77563;SDS011;66703;48.076;9.220;2023-08-08T14:39:05;2.88;;;2.30;;
77563;SDS011;66703;48.076;9.220;2023-08-08T14:41:49;3.20;;;2.33;;
77563;SDS011;66703;48.076;9.220;2023-08-08T14:45:10;3.08;;;1.90;;
77563;SDS011;66703;48.076;9.220;2023-08-08T14:47:43;2.67;;;2.00;;
77563;SDS011;66703;48.076;9.220;2023-08-08T14:53:47;2.60;;;2.28;;
77563;SDS011;66703;48.076;9.220;2023-08-08T14:56:47;2.60;;;2.10;;
77563;SDS011;66703;48.076;9.220;2023-08-08T15:06:09;2.60;;;1.92;;
77563;SDS011;66703;48.076;9.220;2023-08-08T15:08:38;2.60;;;1.90;;
77563;SDS011;66703;48.076;9.220;2023-08-08T15:11:15;2.60;;;2.00;;
77563;SDS011;66703;48.076;9.220;2023-08-08T15:14:04;2.90;;;2.33;;
77563;SDS011;66703;48.076;9.220;2023-08-08T15:16:41;3.78;;;2.13;;
77563;SDS011;66703;48.076;9.220;2023-08-08T15:19:08;4.15;;;2.70;;
77563;SDS011;66703;48.076;9.220;2023-08-08T15:27:30;2.78;;;2.50;;
77563;SDS011;66703;48.076;9.220;2023-08-08T15:30:11;4.22;;;2.53;;
77563;SDS011;66703;48.076;9.220;2023-08-08T15:32:46;3.78;;;2.10;;
77563;SDS011;66703;48.076;9.220;2023-08-08T15:35:34;2.33;;;1.98;;
77563;SDS011;66703;48.076;9.220;2023-08-08T15:38:02;3.00;;;2.25;;
77563;SDS011;66703;48.076;9.220;2023-08-08T15:40:29;2.03;;;1.83;;
77563;SDS011;66703;48.076;9.220;2023-08-08T15:42:54;2.75;;;2.30;;
77563;SDS011;66703;48.076;9.220;2023-08-08T15:45:20;2.30;;;1.90;;
77563;SDS011;66703;48.076;9.220;2023-08-08T15:47:45;2.40;;;2.15;;
77563;SDS011;66703;48.076;9.220;2023-08-08T15:50:11;3.13;;;2.30;;
77563;SDS011;66703;48.076;9.220;2023-08-08T15:52:40;2.28;;;1.90;;
77563;SDS011;66703;48.076;9.220;2023-08-08T15:55:07;1.90;;;1.70;;
77563;SDS011;66703;48.076;9.220;2023-08-08T15:57:34;3.03;;;1.80;;
77563;SDS011;66703;48.076;9.220;2023-08-08T16:00:00;2.80;;;1.88;;
77563;SDS011;66703;48.076;9.220;2023-08-08T16:02:36;3.30;;;2.13;;